Time;durP1;ratioP1;P1;durP2;ratioP2;P2;SDS_P1;SDS_P2;PMS_P1;PMS_P2;Temp;Humidity;BMP_temperature;BMP_pressure;BME280_temperature;BME280_humidity;BME280_pressure;Samples;Min_cycle;Max_cycle;Signal;HPM_P1;HPM_P2
2023/06/01 00:00:18;;;;;;;9.43;1.20;;;;;;;14.99;100.00;98600.69;5159659;27;20149;-58
2023/06/01 00:02:45;;;;;;;12.27;1.80;;;;;;;15.07;100.00;98610.47;5159847;27;20050;-61
2023/06/01 00:05:11;;;;;;;2.95;1.52;;;;;;;15.26;100.00;98609.09;5159000;27;20065;-54
2023/06/01 00:07:37;;;;;;;6.00;1.58;;;;;;;15.07;100.00;98600.22;5159944;27;20050;-56
2023/06/01 00:10:04;;;;;;;3.03;1.13;;;;;;;15.20;100.00;98613.53;5159294;27;20043;-56
2023/06/01 00:12:30;;;;;;;3.95;1.20;;;;;;;15.21;100.00;98617.84;5159522;27;20055;-54
2023/06/01 00:14:56;;;;;;;4.50;1.67;;;;;;;15.26;100.00;98625.66;5159462;27;20093;-61
2023/06/01 00:17:22;;;;;;;3.42;1.75;;;;;;;14.98;100.00;98615.69;5159199;27;20419;-61
2023/06/01 00:19:48;;;;;;;8.60;1.63;;;;;;;15.02;100.00;98624.72;5159389;27;20423;-57
2023/06/01 00:22:15;;;;;;;10.05;1.75;;;;;;;14.97;100.00;98625.16;5159058;27;20055;-61
2023/06/01 00:24:41;;;;;;;3.20;1.30;;;;;;;14.90;100.00;98623.25;5159517;27;20103;-63
2023/06/01 00:27:07;;;;;;;2.92;1.20;;;;;;;14.99;100.00;98617.25;5159189;27;20050;-61
2023/06/01 00:29:33;;;;;;;5.65;1.38;;;;;;;14.88;100.00;98619.31;5159488;27;20053;-63
2023/06/01 00:31:59;;;;;;;4.00;1.20;;;;;;;14.91;100.00;98622.03;5159106;27;20118;-62
2023/06/01 00:34:25;;;;;;;1.95;1.30;;;;;;;14.76;100.00;98626.09;5158975;27;20154;-58
2023/06/01 00:36:51;;;;;;;5.90;1.40;;;;;;;14.80;100.00;98633.19;5158880;27;20137;-57
2023/06/01 00:39:17;;;;;;;1.75;1.33;;;;;;;14.59;100.00;98623.09;5159336;27;20047;-56
2023/06/01 00:41:43;;;;;;;4.93;1.40;;;;;;;14.73;100.00;98621.41;5158836;27;20047;-54
2023/06/01 00:44:09;;;;;;;4.40;1.15;;;;;;;14.56;100.00;98618.38;5159022;27;20137;-54
2023/06/01 00:46:37;;;;;;;1.55;1.30;;;;;;;14.67;100.00;98623.03;5159097;27;20053;-53
2023/06/01 00:49:03;;;;;;;2.67;1.50;;;;;;;14.62;100.00;98620.69;5158692;27;20057;-56
2023/06/01 00:51:29;;;;;;;9.05;1.50;;;;;;;14.26;100.00;98610.66;5159019;27;20360;-64
2023/06/01 00:53:55;;;;;;;4.32;1.33;;;;;;;14.45;100.00;98605.81;5158856;27;20146;-56
2023/06/01 00:56:21;;;;;;;5.63;1.52;;;;;;;14.22;100.00;98589.81;5159019;27;20074;-54
2023/06/01 00:58:48;;;;;;;8.43;1.35;;;;;;;14.34;100.00;98605.88;5158751;27;20046;-57
2023/06/01 01:01:18;;;;;;;3.70;1.45;;;;;;;13.97;100.00;98584.44;5158895;27;20440;-53
2023/06/01 01:03:47;;;;;;;2.80;1.25;;;;;;;14.01;100.00;98587.97;5158503;27;20046;-53
2023/06/01 01:06:22;;;;;;;11.23;1.95;;;;;;;14.32;100.00;98588.94;5158808;27;20289;-58
2023/06/01 01:09:07;;;;;;;2.25;1.13;;;;;;;14.15;100.00;98581.56;5158727;27;20133;-52
2023/06/01 01:11:33;;;;;;;;;;;;;;;14.20;100.00;98581.16;5158958;27;20409;-59
2023/06/01 01:14:05;;;;;;;4.18;1.38;;;;;;;14.09;100.00;98565.47;5158323;27;20322;-58
2023/06/01 01:16:40;;;;;;;2.95;1.42;;;;;;;14.04;100.00;98562.34;5157402;27;20051;-63
2023/06/01 01:19:24;;;;;;;7.80;1.60;;;;;;;14.10;100.00;98569.78;5158621;27;20427;-56
2023/06/01 01:22:07;;;;;;;4.30;1.77;;;;;;;13.82;100.00;98578.19;5158180;27;20093;-57
2023/06/01 01:24:43;;;;;;;1.55;1.13;;;;;;;14.00;100.00;98570.66;5158489;27;20050;-57
2023/06/01 01:27:24;;;;;;;1.55;1.20;;;;;;;13.79;100.00;98567.97;5158502;27;20046;-56
2023/06/01 01:29:52;;;;;;;4.75;1.70;;;;;;;13.96;100.00;98566.31;5158294;27;20055;-61
2023/06/01 01:32:20;;;;;;;7.97;1.40;;;;;;;13.84;100.00;98560.09;5158494;27;20102;-56
2023/06/01 01:34:48;;;;;;;3.85;1.50;;;;;;;14.02;100.00;98573.75;5158082;27;20498;-63
2023/06/01 01:37:14;;;;;;;3.95;1.45;;;;;;;14.08;100.00;98577.66;5158339;27;20047;-61
2023/06/01 01:39:40;;;;;;;5.03;1.55;;;;;;;13.98;100.00;98567.50;5158043;27;20154;-62
2023/06/01 01:42:07;;;;;;;9.48;1.58;;;;;;;14.06;100.00;98569.03;5158437;27;20304;-62
2023/06/01 01:44:34;;;;;;;7.38;1.45;;;;;;;13.97;100.00;98581.69;5157868;27;20058;-53
2023/06/01 01:47:09;;;;;;;2.85;1.17;;;;;;;14.06;100.00;98573.75;5158116;27;20054;-57
2023/06/01 01:49:41;;;;;;;4.07;1.00;;;;;;;14.04;100.00;98571.41;5158178;27;20050;-63
2023/06/01 01:52:12;;;;;;;3.13;1.40;;;;;;;13.95;100.00;98571.06;5157830;27;20483;-57
2023/06/01 01:54:42;;;;;;;12.90;1.40;;;;;;;14.07;100.00;98559.56;5158186;27;20137;-61
2023/06/01 01:57:09;;;;;;;4.20;1.10;;;;;;;13.87;100.00;98559.28;5157918;27;20082;-59
2023/06/01 01:59:35;;;;;;;3.58;1.38;;;;;;;14.01;100.00;98565.91;5158075;27;20513;-53
2023/06/01 02:02:02;;;;;;;3.08;1.73;;;;;;;13.95;100.00;98562.00;5157669;27;20061;-57
2023/06/01 02:04:28;;;;;;;2.88;1.23;;;;;;;14.06;100.00;98569.03;5158117;27;20449;-57
2023/06/01 02:06:54;;;;;;;5.63;1.10;;;;;;;13.87;100.00;98555.75;5157679;27;20133;-61
2023/06/01 02:09:20;;;;;;;4.95;1.73;;;;;;;14.13;100.00;98557.97;5158038;27;20143;-55
2023/06/01 02:11:46;;;;;;;8.85;1.75;;;;;;;14.12;100.00;98561.09;5157896;27;20055;-52
2023/06/01 02:14:12;;;;;;;5.93;1.55;;;;;;;14.08;100.00;98563.09;5157917;27;20054;-54
2023/06/01 02:16:38;;;;;;;3.80;1.08;;;;;;;14.19;100.00;98555.53;5157839;27;20078;-58
2023/06/01 02:19:05;;;;;;;5.35;1.77;;;;;;;14.07;100.00;98559.56;5157741;27;20089;-61
2023/06/01 02:21:31;;;;;;;1.48;0.93;;;;;;;14.18;100.00;98542.19;5157722;27;20141;-54
2023/06/01 02:24:04;;;;;;;2.10;1.17;;;;;;;14.39;100.00;98555.81;5157638;27;20054;-63
2023/06/01 02:26:30;;;;;;;1.60;1.20;;;;;;;14.70;100.00;98550.50;5158220;27;20430;-63
2023/06/01 02:28:56;;;;;;;2.88;1.63;;;;;;;14.94;100.00;98551.44;5161157;27;20093;-58
2023/06/01 02:31:22;;;;;;;4.35;1.67;;;;;;;15.05;100.00;98555.66;5161417;27;20051;-60
2023/06/01 02:33:48;;;;;;;8.63;1.55;;;;;;;15.26;100.00;98554.69;5160957;27;20047;-57
2023/06/01 02:36:16;;;;;;;2.70;1.10;;;;;;;15.55;100.00;98562.63;5161304;27;20047;-54
2023/06/01 02:38:42;;;;;;;5.30;1.20;;;;;;;15.77;100.00;98574.25;5160797;27;20057;-53
2023/06/01 02:41:08;;;;;;;3.30;1.40;;;;;;;16.13;100.00;98576.53;5160757;27;20050;-57
2023/06/01 02:43:34;;;;;;;6.07;1.33;;;;;;;16.29;100.00;98582.22;5160833;27;20423;-63
2023/06/01 02:46:00;;;;;;;6.10;2.00;;;;;;;16.45;100.00;98576.84;5160747;27;20141;-56
2023/06/01 02:48:26;;;;;;;9.15;1.92;;;;;;;16.75;100.00;98583.50;5161054;27;20123;-53
2023/06/01 02:50:52;;;;;;;2.97;1.20;;;;;;;17.06;100.00;98575.88;5160671;27;20047;-54
2023/06/01 02:53:18;;;;;;;3.45;1.05;;;;;;;17.20;99.10;98587.91;5160997;27;20141;-54
2023/06/01 02:55:44;;;;;;;15.05;1.92;;;;;;;17.44;98.78;98589.44;5160688;27;20047;-53
2023/06/01 02:58:16;;;;;;;2.05;1.45;;;;;;;17.68;95.83;98581.06;5160979;27;20312;-54
2023/06/01 03:00:42;;;;;;;1.77;1.08;;;;;;;17.91;93.79;98596.84;5160732;27;20050;-56
2023/06/01 03:03:08;;;;;;;2.83;1.70;;;;;;;18.06;95.59;98592.53;5160868;27;20405;-64
2023/06/01 03:05:35;;;;;;;2.38;1.30;;;;;;;18.18;93.27;98597.44;5160567;27;20438;-55
2023/06/01 03:08:01;;;;;;;4.55;2.08;;;;;;;18.44;91.87;98598.44;5160382;27;20419;-59
2023/06/01 03:10:27;;;;;;;3.47;1.52;;;;;;;18.43;89.51;98602.44;5160671;27;20082;-60
2023/06/01 03:12:53;;;;;;;5.57;1.20;;;;;;;18.62;88.76;98609.13;5160308;27;20161;-61
2023/06/01 03:15:19;;;;;;;4.75;1.50;;;;;;;18.85;88.16;98602.66;5160377;27;20163;-63
2023/06/01 03:17:45;;;;;;;3.65;1.67;;;;;;;18.89;87.93;98600.56;5160433;27;20134;-63
2023/06/01 03:20:14;;;;;;;7.53;1.48;;;;;;;19.08;88.03;98595.38;5160409;27;20119;-59
2023/06/01 03:22:41;;;;;;;1.23;1.13;;;;;;;19.27;87.37;98600.03;5160201;27;20138;-58
2023/06/01 03:25:08;;;;;;;1.83;1.23;;;;;;;19.46;86.16;98603.88;5160562;27;20057;-59
2023/06/01 03:27:34;;;;;;;2.08;1.08;;;;;;;19.60;84.97;98609.06;5160139;27;20050;-54
2023/06/01 03:30:01;;;;;;;5.05;1.42;;;;;;;19.84;83.58;98611.59;5160579;27;20102;-58
2023/06/01 03:32:27;;;;;;;3.38;1.52;;;;;;;20.01;83.39;98607.53;5160010;27;20050;-59
2023/06/01 03:34:53;;;;;;;2.22;1.17;;;;;;;20.23;82.21;98599.34;5159936;27;20046;-62
2023/06/01 03:37:19;;;;;;;5.05;1.40;;;;;;;20.27;81.61;98602.78;5160115;27;20047;-64
2023/06/01 03:39:45;;;;;;;6.07;1.40;;;;;;;20.43;83.46;98602.69;5159286;27;20335;-57
2023/06/01 03:42:11;;;;;;;6.45;1.33;;;;;;;20.65;81.96;98605.59;5160084;27;20082;-52
2023/06/01 03:44:40;;;;;;;1.98;1.20;;;;;;;20.84;81.13;98608.59;5160072;27;20046;-56
2023/06/01 03:47:06;;;;;;;4.22;1.40;;;;;;;20.97;79.40;98606.56;5160169;27;20081;-61
2023/06/01 03:49:32;;;;;;;5.57;1.25;;;;;;;21.47;77.96;98615.25;5159839;27;20122;-58
2023/06/01 03:51:58;;;;;;;2.47;1.45;;;;;;;21.23;77.89;98598.16;5160022;27;20082;-59
2023/06/01 03:54:24;;;;;;;2.20;1.40;;;;;;;21.43;77.93;98595.09;5159644;27;20051;-62
2023/06/01 03:56:50;;;;;;;6.25;1.77;;;;;;;21.68;75.24;98600.53;5160047;27;20054;-62
2023/06/01 03:59:16;;;;;;;9.13;1.25;;;;;;;22.03;73.97;98597.69;5159575;27;20053;-61
2023/06/01 04:01:42;;;;;;;4.85;1.98;;;;;;;22.18;73.14;98609.09;5159961;27;20057;-54
2023/06/01 04:04:08;;;;;;;6.20;1.25;;;;;;;22.36;71.72;98612.00;5159660;27;20057;-56
2023/06/01 04:06:35;;;;;;;4.47;1.52;;;;;;;22.57;69.47;98609.59;5159641;27;20083;-59
2023/06/01 04:09:06;;;;;;;11.80;1.35;;;;;;;22.84;69.63;98612.47;5159512;27;20065;-55
2023/06/01 04:11:32;;;;;;;3.15;1.20;;;;;;;22.82;68.45;98608.59;5159346;27;20092;-61
2023/06/01 04:13:58;;;;;;;6.20;1.67;;;;;;;22.94;68.96;98610.53;5159644;27;20392;-55
2023/06/01 04:16:24;;;;;;;2.50;1.77;;;;;;;23.09;68.55;98608.69;5159282;27;20057;-56
2023/06/01 04:18:51;;;;;;;9.00;1.40;;;;;;;23.48;66.97;98604.19;5159444;27;20055;-52
2023/06/01 04:21:17;;;;;;;9.25;1.42;;;;;;;23.68;66.86;98611.38;5159040;27;20053;-62
2023/06/01 04:23:43;;;;;;;5.35;1.40;;;;;;;23.83;66.33;98606.72;5159533;27;20460;-53
2023/06/01 04:26:09;;;;;;;7.13;2.22;;;;;;;24.04;64.75;98609.78;5159073;27;20098;-59
2023/06/01 04:28:43;;;;;;;4.55;1.85;;;;;;;24.15;64.63;98599.63;5159488;27;20055;-63
2023/06/01 04:31:08;;;;;;;;;;;;;;;23.82;65.62;98605.13;5159661;27;20046;-55
2023/06/01 04:33:36;;;;;;;5.18;2.00;;;;;;;24.26;63.74;98604.75;5159231;27;20211;-54
2023/06/01 04:36:03;;;;;;;5.68;2.17;;;;;;;24.58;63.79;98606.03;5158857;27;20090;-63
2023/06/01 04:38:32;;;;;;;5.10;1.90;;;;;;;24.81;63.19;98609.38;5159284;27;20179;-61
2023/06/01 04:40:57;;;;;;;7.72;2.10;;;;;;;24.85;63.00;98601.56;5159301;27;20050;-59
2023/06/01 04:43:23;;;;;;;7.72;2.20;;;;;;;24.87;63.15;98608.25;5158948;27;20062;-57
2023/06/01 04:45:49;;;;;;;7.43;2.08;;;;;;;24.69;63.21;98613.94;5159055;27;20419;-52
2023/06/01 04:48:16;;;;;;;4.88;2.10;;;;;;;24.42;64.38;98603.63;5158694;27;20050;-52
2023/06/01 04:50:42;;;;;;;6.18;2.00;;;;;;;24.47;66.11;98602.22;5158902;27;20050;-61
2023/06/01 04:53:09;;;;;;;3.88;2.00;;;;;;;24.60;66.06;98603.56;5158580;27;20050;-55
2023/06/01 04:55:35;;;;;;;7.88;2.13;;;;;;;24.47;66.65;98608.59;5159114;27;20047;-54
2023/06/01 04:58:01;;;;;;;4.75;2.17;;;;;;;24.21;67.98;98596.19;5158426;27;20046;-58
2023/06/01 05:00:27;;;;;;;7.57;2.33;;;;;;;23.82;69.54;98596.75;5158718;27;20137;-58
2023/06/01 05:02:53;;;;;;;6.07;2.17;;;;;;;24.04;68.62;98604.19;5158425;27;20107;-59
2023/06/01 05:05:19;;;;;;;5.13;2.13;;;;;;;23.96;70.22;98600.94;5158562;27;20078;-60
2023/06/01 05:07:45;;;;;;;5.90;2.22;;;;;;;24.12;69.36;98594.97;5158605;27;20318;-62
2023/06/01 05:10:13;;;;;;;10.85;2.17;;;;;;;24.29;69.29;98601.00;5158385;27;20373;-59
2023/06/01 05:12:39;;;;;;;6.07;2.05;;;;;;;24.23;68.68;98602.91;5158730;27;20050;-59
2023/06/01 05:15:07;;;;;;;4.68;2.05;;;;;;;24.87;67.97;98588.63;5158237;27;20133;-59
2023/06/01 05:17:33;;;;;;;9.05;2.28;;;;;;;24.96;68.34;98601.81;5158451;27;20141;-55
2023/06/01 05:20:00;;;;;;;4.65;2.30;;;;;;;25.27;67.04;98589.47;5157968;27;20047;-53
2023/06/01 05:22:26;;;;;;;4.05;1.98;;;;;;;25.56;66.05;98602.81;5158412;27;20419;-55
2023/06/01 05:24:52;;;;;;;8.02;2.40;;;;;;;25.36;66.99;98611.88;5158062;27;20475;-56
2023/06/01 05:27:18;;;;;;;4.38;2.20;;;;;;;25.67;66.03;98608.63;5158706;27;20046;-56
2023/06/01 05:29:44;;;;;;;6.55;2.55;;;;;;;25.26;66.87;98605.53;5157972;27;20420;-58
2023/06/01 05:32:10;;;;;;;6.90;2.42;;;;;;;25.29;67.18;98610.19;5158102;27;20042;-55
2023/06/01 05:34:36;;;;;;;10.05;2.60;;;;;;;25.57;67.25;98610.75;5157913;27;20495;-54
2023/06/01 05:37:03;;;;;;;6.53;2.35;;;;;;;25.62;65.35;98600.88;5158034;27;20439;-59
2023/06/01 05:39:29;;;;;;;7.50;2.25;;;;;;;25.76;65.82;98602.94;5157923;27;20137;-60
2023/06/01 05:41:55;;;;;;;6.88;2.38;;;;;;;25.90;64.87;98611.91;5157786;27;20058;-54
2023/06/01 05:44:22;;;;;;;8.82;2.22;;;;;;;25.71;65.85;98600.78;5157946;27;20047;-58
2023/06/01 05:46:49;;;;;;;4.57;2.17;;;;;;;25.53;65.16;98598.16;5157723;27;20051;-61
2023/06/01 05:49:15;;;;;;;4.85;2.15;;;;;;;25.52;65.96;98602.97;5158105;27;20100;-59
2023/06/01 05:51:42;;;;;;;7.93;2.20;;;;;;;25.98;63.89;98602.59;5157617;27;20046;-62
2023/06/01 05:54:08;;;;;;;5.28;2.20;;;;;;;26.07;63.00;98598.91;5158125;27;20278;-57
2023/06/01 05:56:36;;;;;;;11.25;2.08;;;;;;;26.54;62.64;98605.59;5157498;27;20145;-53
2023/06/01 05:59:03;;;;;;;4.70;2.30;;;;;;;26.47;62.53;98595.50;5157752;27;20075;-58
2023/06/01 06:01:30;;;;;;;6.25;2.30;;;;;;;26.98;60.55;98604.69;5158028;27;20102;-62
2023/06/01 06:03:56;;;;;;;7.07;2.67;;;;;;;27.15;60.26;98604.94;5161423;27;20129;-62
2023/06/01 06:06:23;;;;;;;6.75;2.50;;;;;;;27.12;59.71;98601.03;5161450;27;20054;-54
2023/06/01 06:08:49;;;;;;;10.13;2.30;;;;;;;27.17;59.20;98593.97;5161380;27;20049;-61
2023/06/01 06:11:15;;;;;;;6.65;2.30;;;;;;;27.20;59.16;98593.75;5162078;27;20042;-59
2023/06/01 06:13:41;;;;;;;7.20;2.88;;;;;;;27.13;59.50;98597.00;5160929;27;20308;-52
2023/06/01 06:16:07;;;;;;;6.95;2.10;;;;;;;27.45;58.08;98597.13;5161176;27;20053;-61
2023/06/01 06:18:34;;;;;;;7.35;2.63;;;;;;;27.66;57.31;98593.00;5160903;27;20046;-60
2023/06/01 06:21:00;;;;;;;14.93;3.05;;;;;;;27.42;58.28;98593.25;5161338;27;20246;-63
2023/06/01 06:23:27;;;;;;;8.82;2.88;;;;;;;27.06;58.33;98596.59;5160954;27;20332;-53
2023/06/01 06:25:53;;;;;;;6.38;2.45;;;;;;;27.54;57.13;98599.78;5161272;27;20133;-59
2023/06/01 06:28:19;;;;;;;7.57;2.40;;;;;;;27.64;57.23;98592.72;5160781;27;20078;-62
2023/06/01 06:30:45;;;;;;;7.32;1.98;;;;;;;27.82;56.54;98602.16;5160689;27;20404;-54
2023/06/01 06:33:11;;;;;;;8.32;2.58;;;;;;;27.68;56.30;98589.69;5161014;27;20078;-58
2023/06/01 06:35:38;;;;;;;6.38;2.35;;;;;;;27.78;57.00;98591.09;5160448;27;20053;-62
2023/06/01 06:38:04;;;;;;;11.98;2.85;;;;;;;28.27;56.66;98591.31;5160868;27;20361;-63
2023/06/01 06:40:30;;;;;;;14.10;2.63;;;;;;;28.17;56.48;98592.75;5160665;27;20107;-59
2023/06/01 06:42:56;;;;;;;8.07;2.38;;;;;;;28.25;55.57;98588.19;5160783;27;20061;-58
2023/06/01 06:45:22;;;;;;;6.78;2.42;;;;;;;28.59;55.44;98592.88;5160718;27;20142;-56
2023/06/01 06:47:48;;;;;;;4.53;2.47;;;;;;;28.68;54.91;98586.25;5160850;27;20059;-58
2023/06/01 06:50:14;;;;;;;8.52;2.20;;;;;;;28.62;55.24;98596.69;5160375;27;20078;-65
2023/06/01 06:52:41;;;;;;;7.30;2.40;;;;;;;28.94;54.04;98591.00;5160730;27;20391;-57
2023/06/01 06:55:08;;;;;;;7.90;2.20;;;;;;;28.64;54.39;98587.75;5160029;27;20050;-62
2023/06/01 06:57:35;;;;;;;6.60;2.90;;;;;;;28.93;54.43;98587.44;5160090;27;20453;-60
2023/06/01 07:00:05;;;;;;;4.07;1.92;;;;;;;29.18;53.77;98596.28;5160358;27;20051;-62
2023/06/01 07:02:31;;;;;;;4.45;2.42;;;;;;;28.30;54.40;98588.25;5160218;27;20088;-62
2023/06/01 07:04:57;;;;;;;4.80;2.22;;;;;;;28.53;52.74;98588.47;5160159;27;20086;-57
2023/06/01 07:07:23;;;;;;;9.52;2.45;;;;;;;28.56;52.62;98591.03;5159805;27;20325;-62
2023/06/01 07:09:50;;;;;;;8.23;2.20;;;;;;;28.92;52.82;98585.84;5160322;27;20107;-60
2023/06/01 07:12:16;;;;;;;9.98;2.35;;;;;;;29.23;52.53;98590.66;5159988;27;20061;-63
2023/06/01 07:14:42;;;;;;;9.35;2.47;;;;;;;29.53;52.27;98587.44;5158657;27;20310;-62
2023/06/01 07:17:08;;;;;;;5.85;2.35;;;;;;;30.00;51.77;98580.09;5159729;27;20138;-58
2023/06/01 07:19:34;;;;;;;9.55;2.65;;;;;;;30.02;51.51;98585.22;5160360;27;20053;-55
2023/06/01 07:22:00;;;;;;;8.45;2.40;;;;;;;29.24;51.41;98578.09;5159621;27;20055;-60
2023/06/01 07:24:27;;;;;;;4.57;1.88;;;;;;;29.40;51.43;98579.44;5159733;27;20137;-62
2023/06/01 07:26:55;;;;;;;9.55;2.33;;;;;;;28.55;52.94;98580.25;5159969;27;20093;-60
2023/06/01 07:29:22;;;;;;;7.40;2.50;;;;;;;29.25;52.93;98581.69;5159864;27;20329;-53
2023/06/01 07:31:50;;;;;;;5.03;2.42;;;;;;;28.92;52.71;98576.63;5159766;27;20046;-57
2023/06/01 07:34:16;;;;;;;3.85;2.13;;;;;;;29.45;52.46;98583.56;5159623;27;20047;-58
2023/06/01 07:36:45;;;;;;;5.28;2.47;;;;;;;30.00;51.61;98582.94;5159786;27;20089;-61
2023/06/01 07:39:11;;;;;;;5.90;2.50;;;;;;;29.77;50.10;98575.72;5159556;27;20079;-55
2023/06/01 07:41:39;;;;;;;7.28;2.63;;;;;;;29.55;50.63;98568.69;5159557;27;20074;-62
2023/06/01 07:44:07;;;;;;;4.60;2.17;;;;;;;29.88;49.98;98572.13;5159611;27;20054;-60
2023/06/01 07:46:33;;;;;;;9.20;2.40;;;;;;;29.68;50.32;98571.06;5160069;27;20074;-57
2023/06/01 07:48:59;;;;;;;6.85;2.40;;;;;;;30.07;50.20;98575.25;5159312;27;20434;-57
2023/06/01 07:51:25;;;;;;;7.75;2.20;;;;;;;30.19;49.83;98573.97;5159772;27;20344;-59
2023/06/01 07:53:51;;;;;;;8.93;2.25;;;;;;;30.22;50.37;98572.94;5159432;27;20054;-59
2023/06/01 07:56:17;;;;;;;15.80;2.20;;;;;;;30.17;50.32;98573.69;5159276;27;20381;-60
2023/06/01 07:58:44;;;;;;;4.93;2.15;;;;;;;30.30;49.50;98573.97;5159531;27;20059;-57
2023/06/01 08:01:10;;;;;;;10.63;2.30;;;;;;;30.70;49.17;98558.50;5159226;27;20046;-55
2023/06/01 08:03:36;;;;;;;6.45;2.03;;;;;;;30.51;49.81;98565.22;5159484;27;20058;-54
2023/06/01 08:06:04;;;;;;;8.73;2.47;;;;;;;30.30;50.14;98568.31;5159335;27;20400;-55
2023/06/01 08:08:30;;;;;;;8.00;2.40;;;;;;;29.85;50.06;98559.78;5159430;27;20430;-53
2023/06/01 08:10:56;;;;;;;7.93;2.95;;;;;;;29.02;51.59;98555.41;5159125;27;20046;-57
2023/06/01 08:13:25;;;;;;;3.72;2.38;;;;;;;29.25;51.78;98547.81;5159469;27;20312;-60
2023/06/01 08:15:52;;;;;;;7.07;2.30;;;;;;;29.69;52.02;98554.88;5158985;27;20066;-58
2023/06/01 08:18:19;;;;;;;8.20;2.30;;;;;;;30.40;50.53;98546.22;5159516;27;20057;-59
2023/06/01 08:20:45;;;;;;;5.38;2.65;;;;;;;29.99;50.42;98549.53;5159078;27;20159;-55
2023/06/01 08:23:11;;;;;;;5.05;2.25;;;;;;;30.38;50.22;98540.28;5158974;27;20074;-60
2023/06/01 08:25:37;;;;;;;8.02;2.15;;;;;;;29.60;50.90;98541.78;5158901;27;20396;-60
2023/06/01 08:28:04;;;;;;;6.90;2.50;;;;;;;31.10;49.59;98530.09;5158879;27;20129;-57
2023/06/01 08:30:30;;;;;;;7.70;2.40;;;;;;;31.17;49.26;98535.97;5158549;27;20260;-57
2023/06/01 08:32:56;;;;;;;5.82;2.10;;;;;;;31.04;48.07;98530.09;5158431;27;20058;-59
2023/06/01 08:35:23;;;;;;;8.90;2.38;;;;;;;31.20;48.01;98534.16;5158558;27;20054;-56
2023/06/01 08:37:50;;;;;;;7.85;2.40;;;;;;;30.99;48.38;98528.09;5158514;27;20058;-58
2023/06/01 08:40:16;;;;;;;7.15;2.50;;;;;;;30.78;48.91;98530.47;5158905;27;20417;-58
2023/06/01 08:42:51;;;;;;;12.02;2.40;;;;;;;30.78;49.11;98533.28;5158677;27;20130;-62
2023/06/01 08:45:17;;;;;;;7.68;2.30;;;;;;;30.63;47.61;98527.16;5159483;27;20433;-61
2023/06/01 08:47:45;;;;;;;5.05;2.35;;;;;;;30.56;48.60;98534.09;5158572;27;20137;-63
2023/06/01 08:50:11;;;;;;;3.50;2.05;;;;;;;30.42;48.44;98523.81;5158646;27;20145;-55
2023/06/01 08:52:39;;;;;;;6.85;2.40;;;;;;;30.57;49.35;98529.22;5158609;27;20261;-55
2023/06/01 08:55:06;;;;;;;11.57;2.40;;;;;;;30.53;48.11;98515.34;5158632;27;20134;-53
2023/06/01 08:57:32;;;;;;;5.03;2.30;;;;;;;30.98;46.66;98515.22;5158652;27;20064;-60
2023/06/01 08:59:58;;;;;;;5.65;2.60;;;;;;;30.70;47.01;98509.63;5158323;27;20059;-62
2023/06/01 09:02:25;;;;;;;6.25;1.80;;;;;;;31.19;46.78;98504.31;5158456;27;20050;-62
2023/06/01 09:04:52;;;;;;;10.75;2.50;;;;;;;30.45;47.44;98508.66;5158092;27;20053;-61
2023/06/01 09:07:18;;;;;;;5.38;2.38;;;;;;;30.37;47.48;98505.59;5158331;27;20408;-58
2023/06/01 09:09:45;;;;;;;11.40;2.55;;;;;;;30.46;48.56;98494.00;5158111;27;20137;-62
2023/06/01 09:12:33;;;;;;;6.60;2.20;;;;;;;30.86;47.86;98491.84;5158675;27;20055;-63
2023/06/01 09:15:10;;;;;;;8.23;2.53;;;;;;;31.11;47.72;98495.59;5152040;27;20050;-64
2023/06/01 09:17:37;;;;;;;8.25;2.30;;;;;;;30.76;47.81;98490.63;5158226;27;20476;-62
2023/06/01 09:20:04;;;;;;;4.20;2.40;;;;;;;30.72;47.69;98490.06;5158472;27;20047;-61
2023/06/01 09:22:39;;;;;;;7.75;2.13;;;;;;;30.74;47.25;98493.16;5157878;27;20066;-57
2023/06/01 09:25:07;;;;;;;10.27;2.35;;;;;;;30.49;48.44;98506.34;5158524;27;20058;-57
2023/06/01 09:27:43;;;;;;;5.22;2.60;;;;;;;31.13;48.06;98506.41;5157911;27;20047;-58
2023/06/01 09:30:10;;;;;;;8.95;2.45;;;;;;;30.77;46.96;98485.72;5158239;27;20050;-56
2023/06/01 09:32:36;;;;;;;6.70;2.38;;;;;;;30.88;46.98;98480.00;5157628;27;20130;-60
2023/06/01 09:35:03;;;;;;;5.00;2.30;;;;;;;31.42;46.56;98476.66;5157776;27;20429;-56
2023/06/01 09:37:28;;;;;;;13.38;2.30;;;;;;;30.92;46.80;98475.63;5156828;27;20392;-59
2023/06/01 09:39:54;;;;;;;11.57;2.60;;;;;;;31.08;47.76;98476.06;5157853;27;20047;-62
2023/06/01 09:42:31;;;;;;;8.23;2.13;;;;;;;31.07;47.03;98471.69;5157823;27;20407;-60
2023/06/01 09:45:15;;;;;;;5.57;2.03;;;;;;;31.24;46.98;98477.25;5157650;27;20070;-59
2023/06/01 09:47:41;;;;;;;4.38;2.00;;;;;;;30.96;47.15;98466.88;5158064;27;20047;-62
2023/06/01 09:50:08;;;;;;;5.40;2.10;;;;;;;31.04;47.52;98475.56;5157474;27;20074;-62
2023/06/01 09:52:33;;;;;;;7.50;2.40;;;;;;;30.76;47.18;98469.97;5158054;27;20329;-52
2023/06/01 09:55:05;;;;;;;12.65;2.47;;;;;;;30.44;48.34;98462.63;5157413;27;20093;-54
2023/06/01 09:57:33;;;;;;;10.32;2.40;;;;;;;30.82;47.12;98470.75;5157649;27;20138;-58
2023/06/01 10:00:01;;;;;;;10.57;2.03;;;;;;;30.32;48.25;98463.19;5157685;27;20078;-61
2023/06/01 10:02:31;;;;;;;5.97;2.20;;;;;;;29.42;48.51;98471.63;5157244;27;20332;-55
2023/06/01 10:04:58;;;;;;;5.22;2.15;;;;;;;30.61;47.54;98461.81;5157788;27;20078;-50
2023/06/01 10:07:26;;;;;;;6.53;2.05;;;;;;;31.06;47.11;98468.09;5157590;27;20057;-59
2023/06/01 10:09:55;;;;;;;5.05;2.10;;;;;;;30.58;48.06;98460.78;5157572;27;20372;-56
2023/06/01 10:12:21;;;;;;;3.95;2.22;;;;;;;30.76;47.79;98461.50;5156959;27;20046;-53
2023/06/01 10:14:49;;;;;;;6.93;1.80;;;;;;;30.66;47.53;98452.56;5157013;27;20440;-56
2023/06/01 10:17:16;;;;;;;5.10;2.15;;;;;;;30.15;47.82;98457.53;5157167;27;20058;-53
2023/06/01 10:19:42;;;;;;;18.45;2.67;;;;;;;30.02;48.17;98452.41;5157645;27;20042;-58
2023/06/01 10:22:10;;;;;;;4.32;1.95;;;;;;;30.17;47.77;98457.81;5156660;27;20138;-58
2023/06/01 10:24:40;;;;;;;9.98;2.80;;;;;;;29.98;48.58;98449.84;5157234;27;20142;-56
2023/06/01 10:27:14;;;;;;;6.07;2.20;;;;;;;29.59;48.30;98454.69;5157242;27;20054;-56
2023/06/01 10:29:41;;;;;;;8.05;2.38;;;;;;;30.28;47.74;98443.66;5157017;27;20055;-53
2023/06/01 10:32:41;;;;;;;7.88;2.28;;;;;;;30.93;47.63;98439.59;5157303;27;20076;-61
2023/06/01 10:35:10;;;;;;;5.20;2.00;;;;;;;30.99;46.98;98434.69;5156837;27;20130;-53
2023/06/01 10:37:36;;;;;;;8.13;2.05;;;;;;;30.68;47.04;98438.66;5157327;27;20078;-56
2023/06/01 10:40:20;;;;;;;5.85;2.15;;;;;;;31.00;47.39;98441.13;5156547;27;20179;-58
2023/06/01 10:42:47;;;;;;;9.05;2.10;;;;;;;30.84;47.88;98435.00;5156594;27;20058;-61
2023/06/01 10:45:36;;;;;;;7.07;2.10;;;;;;;31.06;47.75;98436.19;5156791;27;20145;-56
2023/06/01 10:48:04;;;;;;;3.35;1.52;;;;;;;30.62;47.88;98433.03;5157685;27;20110;-61
2023/06/01 10:50:30;;;;;;;5.50;2.10;;;;;;;29.88;48.81;98439.34;5160742;27;20047;-54
2023/06/01 10:53:17;;;;;;;4.95;2.08;;;;;;;28.66;49.44;98428.06;5160194;27;20064;-63
2023/06/01 10:55:43;;;;;;;4.03;2.47;;;;;;;28.42;48.65;98419.22;5160582;27;20057;-54
2023/06/01 10:58:23;;;;;;;4.65;2.10;;;;;;;28.39;49.21;98432.28;5159963;27;20042;-60
2023/06/01 11:00:50;;;;;;;5.82;2.63;;;;;;;28.31;50.05;98425.53;5160374;27;20051;-54
2023/06/01 11:03:43;;;;;;;4.85;2.20;;;;;;;28.02;51.25;98424.59;5160138;27;20356;-52
2023/06/01 11:06:23;;;;;;;8.40;2.47;;;;;;;27.90;50.93;98408.91;5160063;27;20101;-53
2023/06/01 11:08:57;;;;;;;3.58;2.15;;;;;;;28.02;51.04;98404.09;5160469;27;20043;-60
2023/06/01 11:11:24;;;;;;;3.80;2.40;;;;;;;27.85;50.76;98401.19;5160138;27;20051;-59
2023/06/01 11:14:11;;;;;;;11.52;2.70;;;;;;;27.70;49.83;98395.69;5160389;27;20117;-61
2023/06/01 11:16:37;;;;;;;5.45;2.20;;;;;;;27.14;49.54;98395.97;5160920;27;20061;-59
2023/06/01 11:19:06;;;;;;;6.07;2.72;;;;;;;26.33;50.91;98379.16;5160304;27;20047;-60
2023/06/01 11:21:35;;;;;;;7.03;2.50;;;;;;;26.98;54.98;98388.09;5159905;27;20102;-58
2023/06/01 11:24:05;;;;;;;7.53;2.95;;;;;;;26.64;51.74;98393.34;5159723;27;20139;-58
2023/06/01 11:26:33;;;;;;;5.43;2.47;;;;;;;26.81;50.68;98385.13;5160010;27;20427;-54
2023/06/01 11:29:11;;;;;;;4.20;2.22;;;;;;;26.84;49.61;98377.72;5159936;27;20051;-52
2023/06/01 11:31:39;;;;;;;6.32;2.47;;;;;;;26.66;50.81;98385.22;5160124;27;20043;-54
2023/06/01 11:34:07;;;;;;;10.95;2.75;;;;;;;26.79;50.74;98379.22;5159585;27;20050;-57